sensor_id;sensor_type;location;lat;lon;timestamp;P1;durP1;ratioP1;P2;durP2;ratioP2
12267;SDS011;6196;48.398;11.736;2023-09-18T00:00:34;8.70;;;7.90;;
12267;SDS011;6196;48.398;11.736;2023-09-18T00:03:01;9.03;;;8.17;;
12267;SDS011;6196;48.398;11.736;2023-09-18T00:05:29;9.07;;;8.23;;
12267;SDS011;6196;48.398;11.736;2023-09-18T00:07:57;9.43;;;8.63;;
12267;SDS011;6196;48.398;11.736;2023-09-18T00:10:25;9.00;;;8.13;;
12267;SDS011;6196;48.398;11.736;2023-09-18T00:12:53;8.90;;;8.10;;
12267;SDS011;6196;48.398;11.736;2023-09-18T00:15:19;8.67;;;7.93;;
12267;SDS011;6196;48.398;11.736;2023-09-18T00:17:47;8.97;;;8.17;;
12267;SDS011;6196;48.398;11.736;2023-09-18T00:20:14;8.70;;;7.80;;
12267;SDS011;6196;48.398;11.736;2023-09-18T00:22:43;9.43;;;8.57;;
12267;SDS011;6196;48.398;11.736;2023-09-18T00:25:10;9.70;;;8.70;;
12267;SDS011;6196;48.398;11.736;2023-09-18T00:27:37;9.73;;;8.83;;
12267;SDS011;6196;48.398;11.736;2023-09-18T00:30:04;9.97;;;8.33;;
12267;SDS011;6196;48.398;11.736;2023-09-18T00:32:32;10.07;;;9.07;;
12267;SDS011;6196;48.398;11.736;2023-09-18T00:34:59;9.00;;;7.73;;
12267;SDS011;6196;48.398;11.736;2023-09-18T00:37:26;9.50;;;8.03;;
12267;SDS011;6196;48.398;11.736;2023-09-18T00:39:54;9.53;;;8.63;;
12267;SDS011;6196;48.398;11.736;2023-09-18T00:42:21;9.07;;;8.27;;
12267;SDS011;6196;48.398;11.736;2023-09-18T00:44:49;9.73;;;8.77;;
12267;SDS011;6196;48.398;11.736;2023-09-18T00:47:16;10.33;;;8.97;;
12267;SDS011;6196;48.398;11.736;2023-09-18T00:49:44;8.73;;;7.93;;
12267;SDS011;6196;48.398;11.736;2023-09-18T00:52:15;9.53;;;8.53;;
12267;SDS011;6196;48.398;11.736;2023-09-18T00:54:43;9.17;;;8.37;;
12267;SDS011;6196;48.398;11.736;2023-09-18T00:57:13;9.90;;;9.10;;
12267;SDS011;6196;48.398;11.736;2023-09-18T00:59:40;10.67;;;9.63;;
12267;SDS011;6196;48.398;11.736;2023-09-18T01:02:07;11.17;;;10.17;;
12267;SDS011;6196;48.398;11.736;2023-09-18T01:04:35;10.90;;;9.90;;
12267;SDS011;6196;48.398;11.736;2023-09-18T01:07:03;9.27;;;8.47;;
12267;SDS011;6196;48.398;11.736;2023-09-18T01:09:30;9.77;;;8.80;;
12267;SDS011;6196;48.398;11.736;2023-09-18T01:14:57;10.23;;;9.33;;
12267;SDS011;6196;48.398;11.736;2023-09-18T01:17:34;13.00;;;10.30;;
12267;SDS011;6196;48.398;11.736;2023-09-18T01:20:10;9.83;;;8.83;;
12267;SDS011;6196;48.398;11.736;2023-09-18T01:22:38;10.57;;;9.53;;
12267;SDS011;6196;48.398;11.736;2023-09-18T01:25:05;11.13;;;10.03;;
12267;SDS011;6196;48.398;11.736;2023-09-18T01:27:33;10.37;;;9.37;;
12267;SDS011;6196;48.398;11.736;2023-09-18T01:30:00;10.87;;;9.77;;
12267;SDS011;6196;48.398;11.736;2023-09-18T01:32:29;10.73;;;9.73;;
12267;SDS011;6196;48.398;11.736;2023-09-18T01:34:59;11.90;;;10.80;;
12267;SDS011;6196;48.398;11.736;2023-09-18T01:37:30;11.27;;;10.17;;
12267;SDS011;6196;48.398;11.736;2023-09-18T01:39:58;12.10;;;11.00;;
12267;SDS011;6196;48.398;11.736;2023-09-18T01:42:26;12.00;;;10.80;;
12267;SDS011;6196;48.398;11.736;2023-09-18T01:44:54;11.23;;;10.23;;
12267;SDS011;6196;48.398;11.736;2023-09-18T01:47:22;11.17;;;10.07;;
12267;SDS011;6196;48.398;11.736;2023-09-18T01:49:54;10.30;;;9.27;;
12267;SDS011;6196;48.398;11.736;2023-09-18T01:52:22;10.70;;;9.50;;
12267;SDS011;6196;48.398;11.736;2023-09-18T01:54:49;10.90;;;9.90;;
12267;SDS011;6196;48.398;11.736;2023-09-18T01:57:16;9.77;;;8.87;;
12267;SDS011;6196;48.398;11.736;2023-09-18T01:59:42;9.13;;;8.33;;
12267;SDS011;6196;48.398;11.736;2023-09-18T02:02:12;10.83;;;9.83;;
12267;SDS011;6196;48.398;11.736;2023-09-18T02:04:49;11.47;;;10.37;;
12267;SDS011;6196;48.398;11.736;2023-09-18T02:07:32;11.53;;;10.40;;
12267;SDS011;6196;48.398;11.736;2023-09-18T02:10:00;11.97;;;10.87;;
12267;SDS011;6196;48.398;11.736;2023-09-18T02:12:27;12.10;;;11.00;;
12267;SDS011;6196;48.398;11.736;2023-09-18T02:14:54;13.10;;;11.77;;
12267;SDS011;6196;48.398;11.736;2023-09-18T02:17:23;12.53;;;11.33;;
12267;SDS011;6196;48.398;11.736;2023-09-18T02:19:50;11.40;;;10.30;;
12267;SDS011;6196;48.398;11.736;2023-09-18T02:22:17;11.20;;;10.20;;
12267;SDS011;6196;48.398;11.736;2023-09-18T02:24:44;12.57;;;11.37;;
12267;SDS011;6196;48.398;11.736;2023-09-18T02:27:11;11.57;;;10.50;;
12267;SDS011;6196;48.398;11.736;2023-09-18T02:29:38;11.87;;;10.60;;
12267;SDS011;6196;48.398;11.736;2023-09-18T02:32:05;11.27;;;10.27;;
12267;SDS011;6196;48.398;11.736;2023-09-18T02:34:32;12.50;;;11.07;;
12267;SDS011;6196;48.398;11.736;2023-09-18T02:36:59;12.00;;;10.80;;
12267;SDS011;6196;48.398;11.736;2023-09-18T02:39:26;12.50;;;11.37;;
12267;SDS011;6196;48.398;11.736;2023-09-18T02:41:53;13.37;;;12.13;;
12267;SDS011;6196;48.398;11.736;2023-09-18T02:44:20;13.10;;;11.53;;
12267;SDS011;6196;48.398;11.736;2023-09-18T02:46:47;12.93;;;11.83;;
12267;SDS011;6196;48.398;11.736;2023-09-18T02:49:14;14.20;;;12.90;;
12267;SDS011;6196;48.398;11.736;2023-09-18T02:51:41;13.37;;;12.17;;
12267;SDS011;6196;48.398;11.736;2023-09-18T02:54:08;14.20;;;12.87;;
12267;SDS011;6196;48.398;11.736;2023-09-18T02:56:34;14.57;;;13.27;;
12267;SDS011;6196;48.398;11.736;2023-09-18T02:59:01;14.90;;;13.50;;
12267;SDS011;6196;48.398;11.736;2023-09-18T03:01:28;14.37;;;13.07;;
12267;SDS011;6196;48.398;11.736;2023-09-18T03:03:55;15.07;;;13.57;;
12267;SDS011;6196;48.398;11.736;2023-09-18T03:06:22;14.97;;;13.57;;
12267;SDS011;6196;48.398;11.736;2023-09-18T03:08:49;15.00;;;13.20;;
12267;SDS011;6196;48.398;11.736;2023-09-18T03:11:17;14.60;;;13.27;;
12267;SDS011;6196;48.398;11.736;2023-09-18T03:13:44;13.87;;;12.47;;
12267;SDS011;6196;48.398;11.736;2023-09-18T03:16:13;14.47;;;13.00;;
12267;SDS011;6196;48.398;11.736;2023-09-18T03:18:40;13.87;;;12.37;;
12267;SDS011;6196;48.398;11.736;2023-09-18T03:21:07;13.33;;;12.07;;
12267;SDS011;6196;48.398;11.736;2023-09-18T03:23:34;12.13;;;11.07;;
12267;SDS011;6196;48.398;11.736;2023-09-18T03:26:01;12.33;;;11.13;;
12267;SDS011;6196;48.398;11.736;2023-09-18T03:28:28;11.23;;;10.23;;
12267;SDS011;6196;48.398;11.736;2023-09-18T03:30:55;11.30;;;10.13;;
12267;SDS011;6196;48.398;11.736;2023-09-18T03:33:24;10.67;;;9.67;;
12267;SDS011;6196;48.398;11.736;2023-09-18T03:35:51;11.53;;;10.43;;
12267;SDS011;6196;48.398;11.736;2023-09-18T03:38:21;11.13;;;10.17;;
12267;SDS011;6196;48.398;11.736;2023-09-18T03:40:48;10.37;;;9.40;;
12267;SDS011;6196;48.398;11.736;2023-09-18T03:43:15;10.67;;;9.67;;
12267;SDS011;6196;48.398;11.736;2023-09-18T03:45:42;10.80;;;9.80;;
12267;SDS011;6196;48.398;11.736;2023-09-18T03:48:09;11.30;;;9.13;;
12267;SDS011;6196;48.398;11.736;2023-09-18T03:50:37;10.53;;;9.63;;
12267;SDS011;6196;48.398;11.736;2023-09-18T03:53:06;11.47;;;10.47;;
12267;SDS011;6196;48.398;11.736;2023-09-18T03:55:33;11.93;;;10.73;;
12267;SDS011;6196;48.398;11.736;2023-09-18T03:58:00;11.67;;;10.27;;
12267;SDS011;6196;48.398;11.736;2023-09-18T04:00:27;11.90;;;10.70;;
12267;SDS011;6196;48.398;11.736;2023-09-18T04:02:54;12.27;;;11.07;;
12267;SDS011;6196;48.398;11.736;2023-09-18T04:05:21;11.93;;;10.80;;
12267;SDS011;6196;48.398;11.736;2023-09-18T04:07:48;13.10;;;11.67;;
12267;SDS011;6196;48.398;11.736;2023-09-18T04:10:15;12.17;;;10.97;;
12267;SDS011;6196;48.398;11.736;2023-09-18T04:12:49;12.07;;;10.87;;
12267;SDS011;6196;48.398;11.736;2023-09-18T04:15:19;11.67;;;10.67;;
12267;SDS011;6196;48.398;11.736;2023-09-18T04:17:47;11.60;;;10.57;;
12267;SDS011;6196;48.398;11.736;2023-09-18T04:20:14;12.33;;;11.13;;
12267;SDS011;6196;48.398;11.736;2023-09-18T04:22:43;11.80;;;10.70;;
12267;SDS011;6196;48.398;11.736;2023-09-18T04:25:12;12.13;;;10.93;;
12267;SDS011;6196;48.398;11.736;2023-09-18T04:27:39;11.53;;;10.53;;
12267;SDS011;6196;48.398;11.736;2023-09-18T04:30:07;13.77;;;12.43;;
12267;SDS011;6196;48.398;11.736;2023-09-18T04:32:39;15.33;;;13.73;;
12267;SDS011;6196;48.398;11.736;2023-09-18T04:35:06;15.67;;;14.17;;
12267;SDS011;6196;48.398;11.736;2023-09-18T04:37:35;15.03;;;13.53;;
12267;SDS011;6196;48.398;11.736;2023-09-18T04:40:05;13.30;;;12.00;;
12267;SDS011;6196;48.398;11.736;2023-09-18T04:42:37;15.23;;;13.73;;
12267;SDS011;6196;48.398;11.736;2023-09-18T04:45:06;14.83;;;13.43;;
12267;SDS011;6196;48.398;11.736;2023-09-18T04:47:33;13.93;;;12.57;;
12267;SDS011;6196;48.398;11.736;2023-09-18T04:50:00;13.53;;;12.10;;
12267;SDS011;6196;48.398;11.736;2023-09-18T04:52:34;13.03;;;11.90;;
12267;SDS011;6196;48.398;11.736;2023-09-18T04:55:04;12.63;;;11.53;;
12267;SDS011;6196;48.398;11.736;2023-09-18T04:57:34;13.57;;;12.33;;
12267;SDS011;6196;48.398;11.736;2023-09-18T05:00:02;13.80;;;12.60;;
12267;SDS011;6196;48.398;11.736;2023-09-18T05:02:42;13.67;;;12.27;;
12267;SDS011;6196;48.398;11.736;2023-09-18T05:05:10;14.63;;;13.23;;
12267;SDS011;6196;48.398;11.736;2023-09-18T05:07:37;15.07;;;11.67;;
12267;SDS011;6196;48.398;11.736;2023-09-18T05:10:04;14.07;;;12.77;;
12267;SDS011;6196;48.398;11.736;2023-09-18T05:12:31;15.57;;;12.90;;
12267;SDS011;6196;48.398;11.736;2023-09-18T05:14:58;13.07;;;11.80;;
12267;SDS011;6196;48.398;11.736;2023-09-18T05:17:41;14.00;;;12.77;;
12267;SDS011;6196;48.398;11.736;2023-09-18T05:20:16;14.27;;;12.93;;
12267;SDS011;6196;48.398;11.736;2023-09-18T05:22:44;13.47;;;12.07;;
12267;SDS011;6196;48.398;11.736;2023-09-18T05:25:12;13.00;;;11.70;;
12267;SDS011;6196;48.398;11.736;2023-09-18T05:27:41;14.43;;;12.30;;
12267;SDS011;6196;48.398;11.736;2023-09-18T05:32:42;12.70;;;11.40;;
12267;SDS011;6196;48.398;11.736;2023-09-18T05:35:11;11.60;;;10.60;;
12267;SDS011;6196;48.398;11.736;2023-09-18T05:37:42;12.97;;;11.57;;
12267;SDS011;6196;48.398;11.736;2023-09-18T05:40:10;11.17;;;10.17;;
12267;SDS011;6196;48.398;11.736;2023-09-18T05:42:40;12.40;;;11.30;;
12267;SDS011;6196;48.398;11.736;2023-09-18T05:45:10;12.27;;;11.07;;
12267;SDS011;6196;48.398;11.736;2023-09-18T05:47:38;11.37;;;10.30;;
12267;SDS011;6196;48.398;11.736;2023-09-18T05:50:06;12.50;;;10.67;;
12267;SDS011;6196;48.398;11.736;2023-09-18T05:52:34;11.77;;;10.67;;
12267;SDS011;6196;48.398;11.736;2023-09-18T05:55:01;11.70;;;10.60;;
12267;SDS011;6196;48.398;11.736;2023-09-18T05:57:31;10.37;;;9.43;;
12267;SDS011;6196;48.398;11.736;2023-09-18T05:59:58;10.97;;;9.87;;
12267;SDS011;6196;48.398;11.736;2023-09-18T06:02:25;10.43;;;9.40;;
12267;SDS011;6196;48.398;11.736;2023-09-18T06:04:55;10.23;;;9.23;;
12267;SDS011;6196;48.398;11.736;2023-09-18T06:07:26;10.50;;;9.37;;
12267;SDS011;6196;48.398;11.736;2023-09-18T06:09:54;10.30;;;9.30;;
12267;SDS011;6196;48.398;11.736;2023-09-18T06:12:21;8.43;;;7.63;;
12267;SDS011;6196;48.398;11.736;2023-09-18T06:14:48;8.77;;;7.97;;
12267;SDS011;6196;48.398;11.736;2023-09-18T06:17:16;9.37;;;8.47;;
12267;SDS011;6196;48.398;11.736;2023-09-18T06:19:44;12.97;;;8.77;;
12267;SDS011;6196;48.398;11.736;2023-09-18T06:22:14;9.80;;;8.07;;
12267;SDS011;6196;48.398;11.736;2023-09-18T06:24:41;9.20;;;8.13;;
12267;SDS011;6196;48.398;11.736;2023-09-18T06:27:09;10.03;;;8.50;;
12267;SDS011;6196;48.398;11.736;2023-09-18T06:29:37;8.97;;;8.07;;
12267;SDS011;6196;48.398;11.736;2023-09-18T06:32:05;8.70;;;7.87;;
12267;SDS011;6196;48.398;11.736;2023-09-18T06:34:33;8.73;;;7.93;;
12267;SDS011;6196;48.398;11.736;2023-09-18T06:37:00;7.97;;;7.27;;
12267;SDS011;6196;48.398;11.736;2023-09-18T06:39:29;7.83;;;7.03;;
12267;SDS011;6196;48.398;11.736;2023-09-18T06:41:56;7.47;;;6.73;;
12267;SDS011;6196;48.398;11.736;2023-09-18T06:44:23;10.50;;;8.00;;
12267;SDS011;6196;48.398;11.736;2023-09-18T06:46:50;8.47;;;7.57;;
12267;SDS011;6196;48.398;11.736;2023-09-18T06:49:18;9.13;;;7.40;;
12267;SDS011;6196;48.398;11.736;2023-09-18T06:51:46;8.33;;;7.30;;
12267;SDS011;6196;48.398;11.736;2023-09-18T06:54:13;8.20;;;7.37;;
12267;SDS011;6196;48.398;11.736;2023-09-18T06:56:40;7.80;;;6.70;;
12267;SDS011;6196;48.398;11.736;2023-09-18T06:59:08;35.23;;;9.03;;
12267;SDS011;6196;48.398;11.736;2023-09-18T07:01:35;25.87;;;8.50;;
12267;SDS011;6196;48.398;11.736;2023-09-18T07:04:02;10.77;;;6.00;;
12267;SDS011;6196;48.398;11.736;2023-09-18T07:06:31;9.87;;;7.30;;
12267;SDS011;6196;48.398;11.736;2023-09-18T07:08:58;7.10;;;6.50;;
12267;SDS011;6196;48.398;11.736;2023-09-18T07:11:25;7.63;;;6.63;;
12267;SDS011;6196;48.398;11.736;2023-09-18T07:13:52;7.87;;;7.03;;
12267;SDS011;6196;48.398;11.736;2023-09-18T07:16:19;65.13;;;10.23;;
12267;SDS011;6196;48.398;11.736;2023-09-18T07:18:46;21.97;;;7.47;;
12267;SDS011;6196;48.398;11.736;2023-09-18T07:21:13;13.13;;;6.67;;
12267;SDS011;6196;48.398;11.736;2023-09-18T07:23:40;7.73;;;6.60;;
12267;SDS011;6196;48.398;11.736;2023-09-18T07:26:07;8.10;;;6.70;;
12267;SDS011;6196;48.398;11.736;2023-09-18T07:28:34;9.13;;;6.37;;
12267;SDS011;6196;48.398;11.736;2023-09-18T07:31:05;7.60;;;5.53;;
12267;SDS011;6196;48.398;11.736;2023-09-18T07:33:33;6.67;;;6.00;;
12267;SDS011;6196;48.398;11.736;2023-09-18T07:36:00;6.70;;;5.67;;
12267;SDS011;6196;48.398;11.736;2023-09-18T07:38:27;6.70;;;4.87;;
12267;SDS011;6196;48.398;11.736;2023-09-18T07:40:54;5.03;;;4.27;;
12267;SDS011;6196;48.398;11.736;2023-09-18T07:43:23;5.80;;;4.40;;
12267;SDS011;6196;48.398;11.736;2023-09-18T07:45:52;4.83;;;4.03;;
12267;SDS011;6196;48.398;11.736;2023-09-18T07:48:21;5.63;;;4.10;;
12267;SDS011;6196;48.398;11.736;2023-09-18T07:50:49;5.43;;;4.30;;
12267;SDS011;6196;48.398;11.736;2023-09-18T07:53:17;5.33;;;4.30;;
12267;SDS011;6196;48.398;11.736;2023-09-18T07:55:45;5.30;;;4.20;;
12267;SDS011;6196;48.398;11.736;2023-09-18T07:58:15;4.73;;;4.30;;
12267;SDS011;6196;48.398;11.736;2023-09-18T08:00:42;5.40;;;4.07;;
12267;SDS011;6196;48.398;11.736;2023-09-18T08:03:09;4.30;;;3.90;;
12267;SDS011;6196;48.398;11.736;2023-09-18T08:05:36;4.63;;;4.23;;
12267;SDS011;6196;48.398;11.736;2023-09-18T08:08:03;7.07;;;4.10;;
12267;SDS011;6196;48.398;11.736;2023-09-18T08:10:31;4.77;;;4.27;;
12267;SDS011;6196;48.398;11.736;2023-09-18T08:12:59;4.83;;;4.37;;
12267;SDS011;6196;48.398;11.736;2023-09-18T08:15:26;4.30;;;4.00;;
12267;SDS011;6196;48.398;11.736;2023-09-18T08:17:53;6.23;;;4.20;;
12267;SDS011;6196;48.398;11.736;2023-09-18T08:20:20;4.22;;;3.83;;
12267;SDS011;6196;48.398;11.736;2023-09-18T08:22:47;4.47;;;4.00;;
12267;SDS011;6196;48.398;11.736;2023-09-18T08:25:15;7.45;;;4.32;;
12267;SDS011;6196;48.398;11.736;2023-09-18T08:27:42;5.43;;;4.05;;
12267;SDS011;6196;48.398;11.736;2023-09-18T08:30:11;6.13;;;4.30;;
12267;SDS011;6196;48.398;11.736;2023-09-18T08:32:40;5.37;;;4.00;;
12267;SDS011;6196;48.398;11.736;2023-09-18T08:35:08;5.07;;;3.45;;
12267;SDS011;6196;48.398;11.736;2023-09-18T08:37:36;4.80;;;3.85;;
12267;SDS011;6196;48.398;11.736;2023-09-18T08:40:03;4.65;;;3.88;;
12267;SDS011;6196;48.398;11.736;2023-09-18T08:42:38;5.88;;;3.83;;
12267;SDS011;6196;48.398;11.736;2023-09-18T08:45:19;4.72;;;3.90;;
12267;SDS011;6196;48.398;11.736;2023-09-18T08:48:10;4.78;;;3.88;;
12267;SDS011;6196;48.398;11.736;2023-09-18T08:50:37;6.55;;;4.00;;
12267;SDS011;6196;48.398;11.736;2023-09-18T08:53:06;5.85;;;3.90;;
12267;SDS011;6196;48.398;11.736;2023-09-18T08:55:34;6.20;;;4.43;;
12267;SDS011;6196;48.398;11.736;2023-09-18T08:58:01;6.47;;;4.15;;
12267;SDS011;6196;48.398;11.736;2023-09-18T09:00:29;6.30;;;4.68;;
12267;SDS011;6196;48.398;11.736;2023-09-18T09:02:56;8.25;;;4.45;;
12267;SDS011;6196;48.398;11.736;2023-09-18T09:05:23;8.57;;;4.10;;
12267;SDS011;6196;48.398;11.736;2023-09-18T09:07:50;4.75;;;4.10;;
12267;SDS011;6196;48.398;11.736;2023-09-18T09:10:18;6.38;;;4.28;;
12267;SDS011;6196;48.398;11.736;2023-09-18T09:12:55;7.70;;;4.50;;
12267;SDS011;6196;48.398;11.736;2023-09-18T09:15:34;4.25;;;3.83;;
12267;SDS011;6196;48.398;11.736;2023-09-18T09:18:14;8.85;;;4.10;;
12267;SDS011;6196;48.398;11.736;2023-09-18T09:20:52;7.00;;;4.22;;
12267;SDS011;6196;48.398;11.736;2023-09-18T09:23:50;6.57;;;3.80;;
12267;SDS011;6196;48.398;11.736;2023-09-18T09:26:20;7.05;;;3.75;;
12267;SDS011;6196;48.398;11.736;2023-09-18T09:28:50;9.20;;;4.40;;
12267;SDS011;6196;48.398;11.736;2023-09-18T09:31:28;5.10;;;4.07;;
12267;SDS011;6196;48.398;11.736;2023-09-18T09:33:57;13.87;;;4.93;;
12267;SDS011;6196;48.398;11.736;2023-09-18T09:36:25;6.68;;;4.40;;
12267;SDS011;6196;48.398;11.736;2023-09-18T09:38:55;8.30;;;4.10;;
12267;SDS011;6196;48.398;11.736;2023-09-18T09:41:25;5.37;;;3.80;;
12267;SDS011;6196;48.398;11.736;2023-09-18T09:43:54;8.80;;;4.50;;
12267;SDS011;6196;48.398;11.736;2023-09-18T09:46:22;8.43;;;4.20;;
12267;SDS011;6196;48.398;11.736;2023-09-18T09:49:02;5.57;;;4.20;;
12267;SDS011;6196;48.398;11.736;2023-09-18T09:51:31;9.40;;;4.60;;
12267;SDS011;6196;48.398;11.736;2023-09-18T09:54:00;6.87;;;4.50;;
12267;SDS011;6196;48.398;11.736;2023-09-18T09:59:30;9.23;;;4.63;;
12267;SDS011;6196;48.398;11.736;2023-09-18T10:01:59;4.37;;;3.80;;
12267;SDS011;6196;48.398;11.736;2023-09-18T10:04:29;7.80;;;4.40;;
12267;SDS011;6196;48.398;11.736;2023-09-18T10:07:07;7.83;;;4.40;;
12267;SDS011;6196;48.398;11.736;2023-09-18T10:09:35;8.40;;;4.47;;
12267;SDS011;6196;48.398;11.736;2023-09-18T10:12:10;5.63;;;3.90;;
12267;SDS011;6196;48.398;11.736;2023-09-18T10:14:38;11.43;;;4.63;;
12267;SDS011;6196;48.398;11.736;2023-09-18T10:17:25;6.77;;;4.23;;
12267;SDS011;6196;48.398;11.736;2023-09-18T10:20:08;11.13;;;4.80;;
12267;SDS011;6196;48.398;11.736;2023-09-18T10:22:46;7.47;;;4.27;;
12267;SDS011;6196;48.398;11.736;2023-09-18T10:25:20;7.43;;;4.63;;
12267;SDS011;6196;48.398;11.736;2023-09-18T10:27:51;5.97;;;4.47;;
12267;SDS011;6196;48.398;11.736;2023-09-18T10:30:24;10.20;;;5.17;;
12267;SDS011;6196;48.398;11.736;2023-09-18T10:32:52;10.50;;;4.70;;
12267;SDS011;6196;48.398;11.736;2023-09-18T10:35:38;8.23;;;4.57;;
12267;SDS011;6196;48.398;11.736;2023-09-18T10:38:07;9.97;;;5.00;;
12267;SDS011;6196;48.398;11.736;2023-09-18T10:40:37;7.20;;;4.27;;
12267;SDS011;6196;48.398;11.736;2023-09-18T10:43:05;11.10;;;5.63;;
12267;SDS011;6196;48.398;11.736;2023-09-18T10:45:35;9.47;;;4.90;;
12267;SDS011;6196;48.398;11.736;2023-09-18T10:48:03;11.90;;;5.20;;
12267;SDS011;6196;48.398;11.736;2023-09-18T10:50:34;9.37;;;4.80;;
12267;SDS011;6196;48.398;11.736;2023-09-18T10:53:01;6.37;;;5.37;;
12267;SDS011;6196;48.398;11.736;2023-09-18T10:55:29;11.80;;;4.97;;
12267;SDS011;6196;48.398;11.736;2023-09-18T10:57:56;9.57;;;4.60;;
12267;SDS011;6196;48.398;11.736;2023-09-18T11:00:26;9.20;;;4.53;;
12267;SDS011;6196;48.398;11.736;2023-09-18T11:03:11;7.17;;;4.43;;
12267;SDS011;6196;48.398;11.736;2023-09-18T11:05:45;6.37;;;4.40;;
12267;SDS011;6196;48.398;11.736;2023-09-18T11:11:08;6.40;;;4.00;;
12267;SDS011;6196;48.398;11.736;2023-09-18T11:13:48;9.07;;;4.63;;
12267;SDS011;6196;48.398;11.736;2023-09-18T11:21:34;10.10;;;4.00;;
12267;SDS011;6196;48.398;11.736;2023-09-18T11:24:02;10.57;;;3.90;;
12267;SDS011;6196;48.398;11.736;2023-09-18T11:26:39;6.27;;;3.47;;
12267;SDS011;6196;48.398;11.736;2023-09-18T11:29:08;5.63;;;3.40;;
12267;SDS011;6196;48.398;11.736;2023-09-18T11:31:40;8.47;;;2.77;;
12267;SDS011;6196;48.398;11.736;2023-09-18T11:34:21;11.47;;;3.20;;
12267;SDS011;6196;48.398;11.736;2023-09-18T11:37:22;6.90;;;2.87;;
12267;SDS011;6196;48.398;11.736;2023-09-18T11:39:51;6.43;;;3.13;;
12267;SDS011;6196;48.398;11.736;2023-09-18T11:42:19;11.97;;;3.50;;
12267;SDS011;6196;48.398;11.736;2023-09-18T11:44:54;7.00;;;2.97;;
12267;SDS011;6196;48.398;11.736;2023-09-18T11:47:23;7.70;;;3.13;;
12267;SDS011;6196;48.398;11.736;2023-09-18T11:49:58;10.70;;;2.90;;
12267;SDS011;6196;48.398;11.736;2023-09-18T11:52:28;13.97;;;3.27;;
12267;SDS011;6196;48.398;11.736;2023-09-18T11:54:57;11.90;;;2.90;;
12267;SDS011;6196;48.398;11.736;2023-09-18T11:57:26;7.73;;;2.87;;
12267;SDS011;6196;48.398;11.736;2023-09-18T11:59:55;7.20;;;2.87;;
12267;SDS011;6196;48.398;11.736;2023-09-18T12:04:56;7.23;;;2.40;;
12267;SDS011;6196;48.398;11.736;2023-09-18T12:07:23;6.40;;;2.70;;
12267;SDS011;6196;48.398;11.736;2023-09-18T12:09:51;10.57;;;2.50;;
12267;SDS011;6196;48.398;11.736;2023-09-18T12:12:20;10.57;;;2.70;;
12267;SDS011;6196;48.398;11.736;2023-09-18T12:14:47;5.77;;;2.00;;
12267;SDS011;6196;48.398;11.736;2023-09-18T12:17:16;7.77;;;2.10;;
12267;SDS011;6196;48.398;11.736;2023-09-18T12:19:52;6.53;;;2.20;;
12267;SDS011;6196;48.398;11.736;2023-09-18T12:22:24;6.60;;;2.20;;
12267;SDS011;6196;48.398;11.736;2023-09-18T12:25:12;6.50;;;1.80;;
12267;SDS011;6196;48.398;11.736;2023-09-18T12:27:42;7.00;;;2.37;;
12267;SDS011;6196;48.398;11.736;2023-09-18T12:30:10;6.63;;;2.27;;
12267;SDS011;6196;48.398;11.736;2023-09-18T12:32:41;7.33;;;2.20;;
12267;SDS011;6196;48.398;11.736;2023-09-18T12:35:08;7.83;;;2.43;;
12267;SDS011;6196;48.398;11.736;2023-09-18T12:37:40;4.13;;;2.10;;
12267;SDS011;6196;48.398;11.736;2023-09-18T12:40:20;8.00;;;1.80;;
12267;SDS011;6196;48.398;11.736;2023-09-18T12:42:53;9.07;;;2.07;;
12267;SDS011;6196;48.398;11.736;2023-09-18T12:45:24;6.73;;;1.87;;
12267;SDS011;6196;48.398;11.736;2023-09-18T12:47:53;6.30;;;1.87;;
12267;SDS011;6196;48.398;11.736;2023-09-18T12:50:22;6.90;;;1.70;;
12267;SDS011;6196;48.398;11.736;2023-09-18T12:52:51;6.57;;;1.37;;
12267;SDS011;6196;48.398;11.736;2023-09-18T12:55:21;4.57;;;1.70;;
12267;SDS011;6196;48.398;11.736;2023-09-18T12:57:53;4.20;;;1.80;;
12267;SDS011;6196;48.398;11.736;2023-09-18T13:00:20;2.77;;;1.60;;
12267;SDS011;6196;48.398;11.736;2023-09-18T13:02:49;4.83;;;2.03;;
12267;SDS011;6196;48.398;11.736;2023-09-18T13:05:21;5.30;;;1.70;;
12267;SDS011;6196;48.398;11.736;2023-09-18T13:07:53;5.50;;;1.70;;
12267;SDS011;6196;48.398;11.736;2023-09-18T13:10:22;6.67;;;1.60;;
12267;SDS011;6196;48.398;11.736;2023-09-18T13:12:53;4.87;;;1.43;;
12267;SDS011;6196;48.398;11.736;2023-09-18T13:15:29;4.87;;;1.57;;
12267;SDS011;6196;48.398;11.736;2023-09-18T13:17:58;3.40;;;1.33;;
12267;SDS011;6196;48.398;11.736;2023-09-18T13:20:30;3.23;;;1.20;;
12267;SDS011;6196;48.398;11.736;2023-09-18T13:22:58;4.57;;;1.30;;
12267;SDS011;6196;48.398;11.736;2023-09-18T13:25:30;3.43;;;1.00;;
12267;SDS011;6196;48.398;11.736;2023-09-18T13:28:07;6.47;;;1.20;;
12267;SDS011;6196;48.398;11.736;2023-09-18T13:30:36;4.17;;;1.30;;
12267;SDS011;6196;48.398;11.736;2023-09-18T13:33:11;2.97;;;1.33;;
12267;SDS011;6196;48.398;11.736;2023-09-18T13:35:44;2.50;;;1.03;;
12267;SDS011;6196;48.398;11.736;2023-09-18T13:38:12;1.90;;;1.00;;
12267;SDS011;6196;48.398;11.736;2023-09-18T13:40:40;2.87;;;1.00;;
12267;SDS011;6196;48.398;11.736;2023-09-18T13:43:08;1.67;;;1.10;;
12267;SDS011;6196;48.398;11.736;2023-09-18T13:45:36;2.77;;;1.20;;
12267;SDS011;6196;48.398;11.736;2023-09-18T13:48:04;3.53;;;1.20;;
12267;SDS011;6196;48.398;11.736;2023-09-18T13:50:32;1.73;;;1.10;;
12267;SDS011;6196;48.398;11.736;2023-09-18T13:53:01;4.23;;;1.17;;
12267;SDS011;6196;48.398;11.736;2023-09-18T13:55:33;3.73;;;1.23;;
12267;SDS011;6196;48.398;11.736;2023-09-18T13:58:01;2.90;;;1.20;;
12267;SDS011;6196;48.398;11.736;2023-09-18T14:00:32;3.20;;;1.60;;
12267;SDS011;6196;48.398;11.736;2023-09-18T14:02:59;2.40;;;1.10;;
12267;SDS011;6196;48.398;11.736;2023-09-18T14:05:26;2.30;;;1.40;;
12267;SDS011;6196;48.398;11.736;2023-09-18T14:07:54;3.00;;;1.50;;
12267;SDS011;6196;48.398;11.736;2023-09-18T14:10:26;2.33;;;1.10;;
12267;SDS011;6196;48.398;11.736;2023-09-18T14:12:53;2.33;;;1.30;;
12267;SDS011;6196;48.398;11.736;2023-09-18T14:15:21;3.87;;;1.60;;
12267;SDS011;6196;48.398;11.736;2023-09-18T14:17:48;2.20;;;1.30;;
12267;SDS011;6196;48.398;11.736;2023-09-18T14:20:15;3.47;;;1.73;;
12267;SDS011;6196;48.398;11.736;2023-09-18T14:22:45;1.50;;;1.10;;
12267;SDS011;6196;48.398;11.736;2023-09-18T14:25:16;3.53;;;1.30;;
12267;SDS011;6196;48.398;11.736;2023-09-18T14:27:46;2.53;;;1.50;;
12267;SDS011;6196;48.398;11.736;2023-09-18T14:30:13;2.50;;;1.40;;
12267;SDS011;6196;48.398;11.736;2023-09-18T14:32:40;1.67;;;1.07;;
12267;SDS011;6196;48.398;11.736;2023-09-18T14:35:07;2.40;;;1.50;;
12267;SDS011;6196;48.398;11.736;2023-09-18T14:37:35;2.27;;;1.07;;
12267;SDS011;6196;48.398;11.736;2023-09-18T14:40:03;1.40;;;1.00;;
12267;SDS011;6196;48.398;11.736;2023-09-18T14:42:31;3.17;;;1.20;;
12267;SDS011;6196;48.398;11.736;2023-09-18T14:44:59;2.40;;;1.20;;
12267;SDS011;6196;48.398;11.736;2023-09-18T14:47:28;3.90;;;1.30;;
12267;SDS011;6196;48.398;11.736;2023-09-18T14:49:55;2.80;;;1.30;;
12267;SDS011;6196;48.398;11.736;2023-09-18T14:52:24;1.47;;;1.20;;
12267;SDS011;6196;48.398;11.736;2023-09-18T14:54:52;2.37;;;1.33;;
12267;SDS011;6196;48.398;11.736;2023-09-18T14:57:19;3.80;;;1.20;;
12267;SDS011;6196;48.398;11.736;2023-09-18T14:59:46;2.80;;;1.50;;
12267;SDS011;6196;48.398;11.736;2023-09-18T15:02:14;2.60;;;1.50;;
12267;SDS011;6196;48.398;11.736;2023-09-18T15:04:42;3.10;;;1.30;;
12267;SDS011;6196;48.398;11.736;2023-09-18T15:07:10;2.47;;;1.37;;
12267;SDS011;6196;48.398;11.736;2023-09-18T15:09:37;3.53;;;1.50;;